Time;durP1;ratioP1;P1;durP2;ratioP2;P2;SDS_P1;SDS_P2;PMS_P1;PMS_P2;Temp;Humidity;BMP_temperature;BMP_pressure;BME280_temperature;BME280_humidity;BME280_pressure;Samples;Min_cycle;Max_cycle;Signal;HPM_P1;HPM_P2
2023/01/23 00:02:16;;;;;;;7.43;2.85;;;;;;;;;;5064261;28;20429;-82
2023/01/23 00:04:44;;;;;;;6.40;2.92;;;;;;;;;;5066304;28;20428;-82
2023/01/23 00:07:12;;;;;;;7.63;2.88;;;;;;;;;;5064957;28;20466;-82
2023/01/23 00:09:41;;;;;;;5.95;2.58;;;;;;;;;;5064994;28;20960;-81
2023/01/23 00:12:14;;;;;;;7.25;2.80;;;;;;;;;;5063829;28;20435;-82
2023/01/23 00:14:47;;;;;;;5.57;2.70;;;;;;;;;;5063748;28;20423;-82
2023/01/23 00:17:20;;;;;;;6.80;2.83;;;;;;;;;;5064657;28;20427;-82
2023/01/23 00:19:53;;;;;;;7.22;3.00;;;;;;;;;;5065785;28;20430;-81
2023/01/23 00:22:26;;;;;;;8.27;3.30;;;;;;;;;;5067987;28;20773;-81
2023/01/23 00:25:00;;;;;;;6.72;2.70;;;;;;;;;;5058914;28;20424;-81
2023/01/23 00:27:28;;;;;;;8.15;3.10;;;;;;;;;;5078303;28;22251;-81
2023/01/23 00:30:01;;;;;;;5.80;2.90;;;;;;;;;;5080078;28;20419;-81
2023/01/23 00:32:34;;;;;;;6.50;2.80;;;;;;;;;;5081822;28;20431;-81
2023/01/23 00:35:06;;;;;;;6.40;2.63;;;;;;;;;;5079936;28;20431;-82
2023/01/23 00:37:39;;;;;;;7.13;2.70;;;;;;;;;;5066226;28;20446;-82
2023/01/23 00:40:13;;;;;;;6.00;2.95;;;;;;;;;;5060768;28;20429;-81
2023/01/23 00:42:41;;;;;;;7.00;3.00;;;;;;;;;;5063237;28;20885;-82
2023/01/23 00:45:09;;;;;;;7.30;3.03;;;;;;;;;;5080372;28;20427;-82
2023/01/23 00:47:42;;;;;;;7.03;2.70;;;;;;;;;;5061827;28;20436;-81
2023/01/23 00:50:15;;;;;;;6.53;2.90;;;;;;;;;;5063262;28;20923;-82
2023/01/23 00:52:43;;;;;;;7.00;2.78;;;;;;;;;;5060689;28;20427;-81
2023/01/23 00:55:17;;;;;;;6.03;2.80;;;;;;;;;;5066565;28;20427;-81
2023/01/23 00:57:44;;;;;;;7.20;2.92;;;;;;;;;;5077038;28;20437;-81
2023/01/23 01:00:18;;;;;;;6.68;3.10;;;;;;;;;;5063888;28;20421;-81
2023/01/23 01:02:51;;;;;;;7.22;3.00;;;;;;;;;;5060058;28;20463;-82
2023/01/23 01:05:23;;;;;;;8.10;2.85;;;;;;;;;;5062890;28;20869;-81
2023/01/23 01:07:56;;;;;;;5.90;2.93;;;;;;;;;;5058811;28;20772;-81
2023/01/23 01:10:31;;;;;;;6.37;3.00;;;;;;;;;;5059972;28;20500;-82
2023/01/23 01:13:05;;;;;;;6.00;2.93;;;;;;;;;;5064793;28;20885;-81
2023/01/23 01:15:33;;;;;;;8.27;3.00;;;;;;;;;;5058681;28;20428;-81
2023/01/23 01:18:00;;;;;;;6.15;2.90;;;;;;;;;;5059416;28;20435;-82
2023/01/23 01:20:29;;;;;;;7.93;2.90;;;;;;;;;;5075795;28;20435;-82
2023/01/23 01:22:58;;;;;;;6.35;2.80;;;;;;;;;;5073674;28;20459;-82
2023/01/23 01:25:26;;;;;;;8.20;3.10;;;;;;;;;;5074494;28;20420;-82
2023/01/23 01:27:55;;;;;;;8.30;3.20;;;;;;;;;;5079484;28;20440;-81
2023/01/23 01:30:29;;;;;;;7.07;2.85;;;;;;;;;;5062191;28;20439;-82
2023/01/23 01:33:02;;;;;;;6.47;3.03;;;;;;;;;;5060998;28;20800;-82
2023/01/23 01:35:34;;;;;;;8.77;3.03;;;;;;;;;;5075759;28;20438;-82
2023/01/23 01:38:07;;;;;;;8.77;3.00;;;;;;;;;;5078875;28;20446;-81
2023/01/23 01:40:36;;;;;;;6.60;3.03;;;;;;;;;;5061537;28;20427;-81
2023/01/23 01:43:17;;;;;;;9.23;3.05;;;;;;;;;;5077084;28;20806;-82
2023/01/23 01:46:17;;;;;;;7.33;2.90;;;;;;;;;;5060065;28;20522;-82
2023/01/23 01:48:52;;;;;;;6.80;3.35;;;;;;;;;;5067141;28;20431;-82
2023/01/23 01:51:27;;;;;;;8.07;3.17;;;;;;;;;;5060680;28;20425;-82
2023/01/23 01:54:02;;;;;;;6.82;3.05;;;;;;;;;;5075813;28;20419;-82
2023/01/23 01:56:32;;;;;;;6.65;3.13;;;;;;;;;;5075526;28;20420;-82
2023/01/23 01:59:07;;;;;;;6.87;3.10;;;;;;;;;;5057163;28;20425;-82
2023/01/23 02:01:40;;;;;;;5.55;2.92;;;;;;;;;;5058050;28;20433;-82
2023/01/23 02:04:14;;;;;;;7.13;3.20;;;;;;;;;;5074112;28;20423;-82
2023/01/23 02:06:47;;;;;;;6.35;3.10;;;;;;;;;;5061484;28;20436;-82
2023/01/23 02:09:22;;;;;;;7.83;3.20;;;;;;;;;;5061742;28;20457;-82
2023/01/23 02:11:55;;;;;;;7.65;3.08;;;;;;;;;;5075377;28;20437;-82
2023/01/23 02:14:29;;;;;;;6.38;3.20;;;;;;;;;;5075269;28;20427;-81
2023/01/23 02:17:02;;;;;;;6.30;2.70;;;;;;;;;;5075813;28;21217;-82
2023/01/23 02:19:39;;;;;;;6.68;2.92;;;;;;;;;;5063431;28;20938;-82
2023/01/23 02:22:18;;;;;;;7.07;3.05;;;;;;;;;;5077000;28;21025;-82
2023/01/23 02:24:54;;;;;;;7.80;3.50;;;;;;;;;;5057685;28;20425;-82
2023/01/23 02:27:29;;;;;;;7.93;3.35;;;;;;;;;;5058862;28;20428;-82
2023/01/23 02:30:02;;;;;;;9.80;3.50;;;;;;;;;;5060470;28;20427;-82
2023/01/23 02:32:35;;;;;;;7.70;3.38;;;;;;;;;;5058919;28;20428;-82
2023/01/23 02:35:08;;;;;;;9.20;3.50;;;;;;;;;;5075850;28;20428;-82
2023/01/23 02:37:43;;;;;;;7.20;3.50;;;;;;;;;;5060020;28;20741;-81
2023/01/23 02:40:12;;;;;;;8.15;3.38;;;;;;;;;;5057672;28;20430;-82
2023/01/23 02:42:46;;;;;;;7.00;3.40;;;;;;;;;;5061683;28;20419;-81
2023/01/23 02:45:19;;;;;;;7.77;3.40;;;;;;;;;;5061039;28;20434;-82
2023/01/23 02:47:52;;;;;;;8.45;3.38;;;;;;;;;;5057809;28;20429;-82
2023/01/23 02:50:24;;;;;;;7.78;3.28;;;;;;;;;;5078479;28;20427;-82
2023/01/23 02:52:57;;;;;;;5.95;3.00;;;;;;;;;;5061904;28;20429;-82
2023/01/23 02:55:32;;;;;;;7.80;3.35;;;;;;;;;;5060962;28;20423;-81
2023/01/23 03:00:49;;;;;;;8.27;3.60;;;;;;;;;;5059330;28;20459;-82
2023/01/23 03:03:17;;;;;;;7.18;3.25;;;;;;;;;;5077928;28;20431;-82
2023/01/23 03:05:46;;;;;;;9.23;3.50;;;;;;;;;;5059130;28;20427;-82
2023/01/23 03:08:19;;;;;;;7.97;3.60;;;;;;;;;;5061188;28;20434;-83
2023/01/23 03:10:47;;;;;;;8.02;3.50;;;;;;;;;;5066846;28;20435;-83
2023/01/23 03:13:21;;;;;;;8.27;3.55;;;;;;;;;;5057050;28;20436;-82
2023/01/23 03:15:51;;;;;;;7.67;3.30;;;;;;;;;;5057977;28;20945;-82
2023/01/23 03:18:26;;;;;;;7.43;3.55;;;;;;;;;;5060314;28;21061;-82
2023/01/23 03:20:54;;;;;;;8.57;3.67;;;;;;;;;;5059528;28;20423;-82
2023/01/23 03:23:23;;;;;;;7.53;3.25;;;;;;;;;;5060714;28;20442;-82
2023/01/23 03:25:58;;;;;;;7.20;3.40;;;;;;;;;;5059183;28;20428;-81
2023/01/23 03:31:21;;;;;;;8.25;3.45;;;;;;;;;;5056809;28;20432;-82
2023/01/23 03:33:54;;;;;;;8.23;3.75;;;;;;;;;;5057843;28;20432;-81
2023/01/23 03:36:22;;;;;;;9.40;3.90;;;;;;;;;;5054011;28;21042;-81
2023/01/23 03:41:44;;;;;;;7.22;3.80;;;;;;;;;;5059889;28;20423;-82
2023/01/23 03:44:20;;;;;;;9.25;4.10;;;;;;;;;;5065699;28;20440;-82
2023/01/23 03:46:53;;;;;;;9.32;4.05;;;;;;;;;;5081769;28;21022;-81
2023/01/23 03:49:26;;;;;;;10.05;4.22;;;;;;;;;;5061704;28;20767;-82
2023/01/23 03:51:59;;;;;;;9.90;4.40;;;;;;;;;;5064471;28;20437;-82
2023/01/23 03:54:32;;;;;;;9.32;4.10;;;;;;;;;;5077217;28;20420;-82
2023/01/23 03:57:08;;;;;;;8.57;3.75;;;;;;;;;;5060806;28;20420;-81
2023/01/23 04:00:04;;;;;;;8.48;3.90;;;;;;;;;;5081902;28;20432;-82
2023/01/23 04:02:46;;;;;;;8.47;4.00;;;;;;;;;;5068167;28;20446;-82
2023/01/23 04:05:14;;;;;;;7.65;4.00;;;;;;;;;;5078166;28;20425;-83
2023/01/23 04:07:47;;;;;;;8.73;4.20;;;;;;;;;;5063315;28;20776;-82
2023/01/23 04:10:20;;;;;;;8.10;4.22;;;;;;;;;;5063945;28;20432;-82
2023/01/23 04:12:53;;;;;;;9.15;4.30;;;;;;;;;;5077915;28;20440;-82
2023/01/23 04:15:27;;;;;;;8.75;4.20;;;;;;;;;;5058878;28;20432;-82
2023/01/23 04:18:04;;;;;;;9.75;4.40;;;;;;;;;;5060886;28;20954;-82
2023/01/23 04:20:32;;;;;;;9.32;4.35;;;;;;;;;;5061383;28;21127;-82
2023/01/23 04:23:05;;;;;;;9.68;4.30;;;;;;;;;;5063839;28;21015;-82
2023/01/23 04:25:38;;;;;;;10.00;4.30;;;;;;;;;;5060906;28;20797;-82
2023/01/23 04:28:13;;;;;;;8.27;4.13;;;;;;;;;;5061815;28;22052;-81
2023/01/23 04:30:50;;;;;;;8.40;3.83;;;;;;;;;;5058937;28;20427;-82
2023/01/23 04:33:29;;;;;;;8.05;4.03;;;;;;;;;;5077519;28;20427;-82
2023/01/23 04:36:04;;;;;;;8.93;4.07;;;;;;;;;;5065612;28;20480;-82
2023/01/23 04:38:33;;;;;;;8.27;4.13;;;;;;;;;;5062773;28;20499;-81
2023/01/23 04:41:18;;;;;;;10.32;4.20;;;;;;;;;;5078489;28;20427;-82
2023/01/23 04:44:18;;;;;;;8.52;4.20;;;;;;;;;;5062772;28;20843;-82
2023/01/23 04:47:01;;;;;;;7.85;4.05;;;;;;;;;;5059501;28;21116;-81
2023/01/23 04:49:34;;;;;;;9.57;4.37;;;;;;;;;;5074328;28;20427;-82
2023/01/23 04:52:02;;;;;;;9.13;4.38;;;;;;;;;;5077594;28;20439;-82
2023/01/23 04:54:38;;;;;;;9.55;4.40;;;;;;;;;;5059411;28;20434;-82
2023/01/23 04:57:11;;;;;;;9.38;4.30;;;;;;;;;;5061733;28;20425;-82
2023/01/23 04:59:40;;;;;;;11.02;4.03;;;;;;;;;;5060044;28;20427;-82
2023/01/23 05:02:09;;;;;;;8.13;4.10;;;;;;;;;;5062044;28;20428;-82
2023/01/23 05:04:43;;;;;;;8.77;4.40;;;;;;;;;;5060904;28;20438;-81
2023/01/23 05:07:16;;;;;;;8.68;4.20;;;;;;;;;;5060671;28;20448;-82
2023/01/23 05:10:04;;;;;;;8.48;4.18;;;;;;;;;;5067327;28;20427;-81
2023/01/23 05:12:37;;;;;;;8.90;4.28;;;;;;;;;;5074996;28;21194;-82
2023/01/23 05:15:05;;;;;;;9.48;4.70;;;;;;;;;;5056811;28;20514;-83
2023/01/23 05:17:38;;;;;;;9.05;4.50;;;;;;;;;;5059377;28;20423;-81
2023/01/23 05:20:06;;;;;;;10.17;4.37;;;;;;;;;;5060848;28;20436;-82
2023/01/23 05:22:50;;;;;;;8.27;4.32;;;;;;;;;;5058881;28;20425;-82
2023/01/23 05:25:20;;;;;;;7.93;4.20;;;;;;;;;;5077101;28;20440;-82
2023/01/23 05:27:55;;;;;;;9.63;4.50;;;;;;;;;;5078834;28;20417;-82
2023/01/23 05:30:28;;;;;;;8.27;4.18;;;;;;;;;;5057447;28;20439;-82
2023/01/23 05:33:12;;;;;;;9.40;4.45;;;;;;;;;;5077125;28;20435;-82
2023/01/23 05:35:45;;;;;;;10.50;4.97;;;;;;;;;;5061141;28;20450;-82
2023/01/23 05:38:18;;;;;;;11.55;4.95;;;;;;;;;;5078020;28;20418;-82
2023/01/23 05:40:52;;;;;;;8.93;4.60;;;;;;;;;;5067271;28;20428;-82
2023/01/23 05:43:55;;;;;;;8.52;4.68;;;;;;;;;;5024666;28;20440;-82
2023/01/23 05:46:31;;;;;;;9.57;4.68;;;;;;;;;;5060153;28;20435;-82
2023/01/23 05:49:05;;;;;;;10.70;5.00;;;;;;;;;;5058689;28;20433;-82
2023/01/23 05:51:38;;;;;;;10.85;4.70;;;;;;;;;;5055110;28;20427;-81
2023/01/23 05:54:07;;;;;;;11.65;4.47;;;;;;;;;;5076489;28;20429;-82
2023/01/23 05:56:43;;;;;;;9.45;4.25;;;;;;;;;;5074509;28;20425;-82
2023/01/23 05:59:35;;;;;;;8.95;4.50;;;;;;;;;;5065700;28;20746;-81
2023/01/23 06:02:23;;;;;;;11.05;4.88;;;;;;;;;;5069763;28;20434;-82
2023/01/23 06:05:22;;;;;;;10.02;4.80;;;;;;;;;;5058007;28;20955;-82
2023/01/23 06:08:01;;;;;;;11.82;4.90;;;;;;;;;;5071200;28;20433;-82
2023/01/23 06:10:29;;;;;;;10.63;5.10;;;;;;;;;;5076615;28;20474;-82
2023/01/23 06:13:02;;;;;;;11.40;4.78;;;;;;;;;;5074588;28;20423;-82
2023/01/23 06:15:36;;;;;;;9.80;4.95;;;;;;;;;;5074104;28;20431;-82
2023/01/23 06:18:11;;;;;;;10.30;4.82;;;;;;;;;;5058220;28;20753;-82
2023/01/23 06:20:45;;;;;;;9.75;4.70;;;;;;;;;;5062083;28;20429;-81
2023/01/23 06:23:13;;;;;;;8.15;4.50;;;;;;;;;;5061286;28;20416;-82
2023/01/23 06:25:41;;;;;;;8.80;4.68;;;;;;;;;;5060982;28;20432;-83
2023/01/23 06:28:14;;;;;;;9.15;4.40;;;;;;;;;;5074350;28;20932;-82
2023/01/23 06:30:43;;;;;;;9.98;4.20;;;;;;;;;;5059999;28;20907;-81
2023/01/23 06:33:22;;;;;;;8.32;4.05;;;;;;;;;;5065728;28;20433;-81
2023/01/23 06:36:01;;;;;;;9.05;4.43;;;;;;;;;;5057875;28;20425;-81
2023/01/23 06:38:33;;;;;;;9.15;4.13;;;;;;;;;;5058469;28;20423;-82
2023/01/23 06:41:09;;;;;;;11.13;4.50;;;;;;;;;;5071746;28;21205;-82
2023/01/23 06:43:50;;;;;;;8.10;4.45;;;;;;;;;;5057462;28;20420;-82
2023/01/23 06:46:26;;;;;;;8.65;4.15;;;;;;;;;;5072403;28;20433;-81
2023/01/23 06:48:58;;;;;;;10.00;4.72;;;;;;;;;;5057070;28;20427;-82
2023/01/23 06:51:37;;;;;;;9.15;4.30;;;;;;;;;;5057306;28;20444;-81
2023/01/23 06:54:12;;;;;;;10.00;5.00;;;;;;;;;;5057939;28;20431;-81
2023/01/23 06:56:45;;;;;;;11.30;4.65;;;;;;;;;;5056205;28;20796;-82
2023/01/23 06:59:19;;;;;;;10.63;4.90;;;;;;;;;;5054608;28;20453;-82
2023/01/23 07:01:46;;;;;;;9.63;4.67;;;;;;;;;;5073091;28;20431;-82
2023/01/23 07:04:23;;;;;;;10.93;4.80;;;;;;;;;;5057838;28;20427;-81
2023/01/23 07:06:58;;;;;;;10.63;5.10;;;;;;;;;;5063970;28;20425;-82
2023/01/23 07:09:31;;;;;;;10.95;4.95;;;;;;;;;;5057771;28;20424;-81
2023/01/23 07:12:10;;;;;;;10.02;4.68;;;;;;;;;;5074546;28;20436;-82
2023/01/23 07:14:39;;;;;;;12.68;4.88;;;;;;;;;;5060952;28;20420;-82
2023/01/23 07:17:14;;;;;;;12.13;5.10;;;;;;;;;;5057132;28;20436;-82
2023/01/23 07:19:47;;;;;;;12.35;5.65;;;;;;;;;;5060693;28;20420;-82
2023/01/23 07:22:22;;;;;;;12.40;5.00;;;;;;;;;;5077404;28;20447;-82
2023/01/23 07:24:55;;;;;;;11.23;5.30;;;;;;;;;;5067364;28;20433;-82
2023/01/23 07:27:27;;;;;;;11.80;5.40;;;;;;;;;;5079157;28;20790;-83
2023/01/23 07:30:00;;;;;;;9.73;5.13;;;;;;;;;;5061266;28;20419;-81
2023/01/23 07:32:33;;;;;;;11.63;5.20;;;;;;;;;;5063466;28;21154;-82
2023/01/23 07:35:07;;;;;;;9.98;4.75;;;;;;;;;;5067385;28;20433;-82
2023/01/23 07:37:41;;;;;;;10.70;5.03;;;;;;;;;;5063800;28;20422;-81
2023/01/23 07:40:13;;;;;;;10.18;5.10;;;;;;;;;;5061751;28;20440;-81
2023/01/23 07:42:47;;;;;;;11.48;5.40;;;;;;;;;;5059707;28;20432;-82
2023/01/23 07:45:19;;;;;;;12.63;5.65;;;;;;;;;;5062607;28;20429;-82
2023/01/23 07:47:52;;;;;;;10.88;5.47;;;;;;;;;;5062964;28;20422;-81
2023/01/23 07:50:25;;;;;;;11.00;5.93;;;;;;;;;;5063941;28;20899;-82
2023/01/23 07:52:59;;;;;;;12.00;5.50;;;;;;;;;;5076607;28;20440;-82
2023/01/23 07:55:32;;;;;;;11.90;5.82;;;;;;;;;;5063242;28;20841;-81
2023/01/23 07:57:59;;;;;;;11.40;5.63;;;;;;;;;;5057998;28;20855;-82
2023/01/23 08:00:32;;;;;;;11.98;5.50;;;;;;;;;;5061114;28;20442;-82
2023/01/23 08:03:05;;;;;;;11.55;5.57;;;;;;;;;;5064357;28;20418;-82
2023/01/23 08:05:38;;;;;;;11.48;5.53;;;;;;;;;;5061873;28;20428;-82
2023/01/23 08:08:07;;;;;;;13.23;6.28;;;;;;;;;;5052636;28;20424;-82
2023/01/23 08:10:40;;;;;;;11.65;5.93;;;;;;;;;;5080056;28;20420;-82
2023/01/23 08:13:13;;;;;;;12.02;6.20;;;;;;;;;;5080277;28;20433;-81
2023/01/23 08:15:46;;;;;;;13.35;5.82;;;;;;;;;;5059845;28;20925;-82
2023/01/23 08:18:14;;;;;;;12.18;6.10;;;;;;;;;;5061774;28;20416;-81
2023/01/23 08:20:52;;;;;;;11.98;5.93;;;;;;;;;;5078349;28;20908;-82
2023/01/23 08:23:27;;;;;;;13.38;6.18;;;;;;;;;;5063078;28;20421;-81
2023/01/23 08:26:01;;;;;;;12.40;6.10;;;;;;;;;;5075472;28;20427;-81
2023/01/23 08:28:28;;;;;;;12.70;5.60;;;;;;;;;;5078375;28;20455;-81
2023/01/23 08:31:00;;;;;;;11.63;5.50;;;;;;;;;;5058107;28;20413;-81
2023/01/23 08:33:33;;;;;;;12.27;6.20;;;;;;;;;;5063685;28;20895;-82
2023/01/23 08:36:06;;;;;;;12.73;5.80;;;;;;;;;;5062642;28;20425;-82
2023/01/23 08:38:40;;;;;;;10.95;5.95;;;;;;;;;;5059172;28;20427;-81
2023/01/23 08:41:13;;;;;;;14.15;6.43;;;;;;;;;;5079214;28;20436;-82
2023/01/23 08:43:46;;;;;;;12.18;5.90;;;;;;;;;;5079069;28;20431;-81
2023/01/23 08:46:19;;;;;;;13.10;5.97;;;;;;;;;;5062655;28;20434;-81
2023/01/23 08:48:52;;;;;;;14.02;6.38;;;;;;;;;;5060982;28;21103;-82
2023/01/23 08:51:26;;;;;;;13.35;6.68;;;;;;;;;;5058001;28;20424;-81
2023/01/23 08:54:00;;;;;;;13.48;6.88;;;;;;;;;;5080978;28;20928;-81
2023/01/23 08:56:32;;;;;;;13.13;7.03;;;;;;;;;;5078919;28;20442;-81
2023/01/23 08:59:00;;;;;;;13.75;6.68;;;;;;;;;;5063749;28;20419;-82
2023/01/23 09:01:33;;;;;;;13.05;6.32;;;;;;;;;;5057829;28;20433;-83
2023/01/23 09:04:01;;;;;;;14.43;6.97;;;;;;;;;;5075973;28;20425;-81
2023/01/23 09:06:28;;;;;;;14.07;6.93;;;;;;;;;;5062667;28;20427;-82
2023/01/23 09:09:02;;;;;;;13.82;6.60;;;;;;;;;;5077961;28;20439;-81
2023/01/23 09:11:35;;;;;;;12.02;6.28;;;;;;;;;;5061907;28;20429;-82
2023/01/23 09:14:08;;;;;;;12.65;6.68;;;;;;;;;;5060042;28;20433;-82
2023/01/23 09:16:36;;;;;;;15.57;7.03;;;;;;;;;;5073951;28;20421;-82
2023/01/23 09:19:11;;;;;;;12.43;6.25;;;;;;;;;;5058860;28;20433;-81
2023/01/23 09:21:39;;;;;;;16.10;7.00;;;;;;;;;;5062338;28;20417;-81
2023/01/23 09:24:08;;;;;;;14.93;7.32;;;;;;;;;;5066547;28;20452;-81
2023/01/23 09:26:36;;;;;;;17.13;7.80;;;;;;;;;;5063979;28;20435;-81
2023/01/23 09:29:09;;;;;;;14.95;7.38;;;;;;;;;;5061118;28;20434;-82
2023/01/23 09:31:37;;;;;;;16.48;7.60;;;;;;;;;;5062284;28;20801;-82
2023/01/23 09:34:06;;;;;;;14.80;7.20;;;;;;;;;;5052718;28;20464;-82
2023/01/23 09:36:39;;;;;;;15.10;7.40;;;;;;;;;;5055234;28;20485;-82
2023/01/23 09:39:08;;;;;;;15.70;7.60;;;;;;;;;;5054437;28;21141;-82
2023/01/23 09:41:43;;;;;;;14.02;6.95;;;;;;;;;;5039663;28;20439;-83
2023/01/23 09:44:18;;;;;;;13.80;7.35;;;;;;;;;;5039073;28;21783;-82
2023/01/23 09:46:53;;;;;;;14.13;7.72;;;;;;;;;;5041055;28;20993;-82
2023/01/23 09:49:28;;;;;;;14.70;7.60;;;;;;;;;;5042642;28;20420;-81
2023/01/23 09:52:03;;;;;;;13.88;7.47;;;;;;;;;;5045077;28;20431;-82
2023/01/23 09:54:42;;;;;;;14.52;7.30;;;;;;;;;;5045103;28;21130;-82
2023/01/23 09:57:14;;;;;;;15.82;7.70;;;;;;;;;;5039397;28;20412;-82
2023/01/23 09:59:44;;;;;;;15.82;7.65;;;;;;;;;;5035869;28;20443;-82
2023/01/23 10:02:19;;;;;;;14.47;7.70;;;;;;;;;;5039463;28;20438;-82
2023/01/23 10:04:47;;;;;;;17.45;8.05;;;;;;;;;;5056268;28;21277;-81
2023/01/23 10:07:26;;;;;;;15.10;7.38;;;;;;;;;;5046451;28;20432;-81
2023/01/23 10:10:26;;;;;;;16.98;8.23;;;;;;;;;;5043375;28;20424;-81
2023/01/23 10:13:02;;;;;;;14.57;8.23;;;;;;;;;;5044622;28;20435;-81
2023/01/23 10:15:41;;;;;;;16.55;8.20;;;;;;;;;;5046578;28;20973;-81
2023/01/23 10:18:15;;;;;;;16.95;8.20;;;;;;;;;;5044634;28;20427;-81
2023/01/23 10:20:57;;;;;;;16.27;8.30;;;;;;;;;;5055144;28;20489;-81
2023/01/23 10:23:36;;;;;;;17.17;8.50;;;;;;;;;;5044043;28;20431;-81
2023/01/23 10:26:14;;;;;;;15.98;8.05;;;;;;;;;;5042422;28;20511;-81
2023/01/23 10:28:47;;;;;;;17.20;7.93;;;;;;;;;;5041875;28;20431;-82
2023/01/23 10:31:23;;;;;;;17.48;8.88;;;;;;;;;;5044661;28;20420;-81
2023/01/23 10:33:58;;;;;;;16.58;8.20;;;;;;;;;;5039346;28;20428;-81
2023/01/23 10:36:35;;;;;;;18.40;8.95;;;;;;;;;;5045637;28;20431;-81
2023/01/23 10:39:12;;;;;;;16.73;8.10;;;;;;;;;;5040706;28;20430;-81
2023/01/23 10:41:46;;;;;;;20.20;9.68;;;;;;;;;;5047662;28;20931;-81
2023/01/23 10:44:21;;;;;;;18.73;9.52;;;;;;;;;;5041496;28;20435;-81
2023/01/23 10:46:55;;;;;;;19.30;9.85;;;;;;;;;;5047533;28;20863;-81
2023/01/23 10:49:30;;;;;;;17.48;9.10;;;;;;;;;;5041859;28;20431;-81
2023/01/23 10:52:03;;;;;;;22.03;9.17;;;;;;;;;;5054796;28;20427;-82
2023/01/23 10:54:44;;;;;;;16.75;8.75;;;;;;;;;;5039354;28;21787;-83
2023/01/23 10:57:24;;;;;;;17.80;8.73;;;;;;;;;;5045214;28;20431;-83
2023/01/23 11:00:00;;;;;;;18.67;9.27;;;;;;;;;;5039044;28;20463;-82
2023/01/23 11:02:29;;;;;;;19.67;9.65;;;;;;;;;;5041746;28;20427;-82
2023/01/23 11:04:58;;;;;;;17.87;9.20;;;;;;;;;;5051993;28;20431;-82
2023/01/23 11:07:27;;;;;;;19.70;9.52;;;;;;;;;;5045567;28;20987;-82
2023/01/23 11:10:00;;;;;;;19.63;9.30;;;;;;;;;;5045219;28;20528;-82
2023/01/23 11:12:35;;;;;;;19.02;9.65;;;;;;;;;;5038162;28;20458;-83
2023/01/23 11:15:13;;;;;;;19.83;10.33;;;;;;;;;;5039903;28;20431;-83
2023/01/23 11:17:41;;;;;;;20.02;10.10;;;;;;;;;;5042290;28;20431;-84
2023/01/23 11:20:23;;;;;;;17.23;8.65;;;;;;;;;;5040040;28;20434;-82
2023/01/23 11:23:03;;;;;;;22.30;10.07;;;;;;;;;;5054944;28;20438;-83
2023/01/23 11:25:32;;;;;;;20.25;10.15;;;;;;;;;;5045498;28;20432;-82
2023/01/23 11:28:22;;;;;;;20.50;10.25;;;;;;;;;;5053236;28;21073;-83
2023/01/23 11:30:50;;;;;;;20.17;10.77;;;;;;;;;;5055973;28;20434;-83
2023/01/23 11:33:33;;;;;;;24.40;12.85;;;;;;;;;;5042716;28;20435;-84
2023/01/23 11:36:08;;;;;;;21.73;11.02;;;;;;;;;;5047480;28;21253;-84
2023/01/23 11:38:39;;;;;;;21.83;10.68;;;;;;;;;;5047401;28;21305;-83
2023/01/23 11:41:13;;;;;;;19.95;10.23;;;;;;;;;;5044976;28;20423;-83
2023/01/23 11:43:42;;;;;;;21.73;10.75;;;;;;;;;;5051375;28;20509;-83
2023/01/23 11:46:20;;;;;;;21.30;10.60;;;;;;;;;;5042332;28;20431;-85
2023/01/23 11:48:54;;;;;;;22.10;10.50;;;;;;;;;;5057251;28;20435;-83
2023/01/23 11:51:25;;;;;;;20.83;10.07;;;;;;;;;;5044330;28;20420;-81
2023/01/23 11:54:00;;;;;;;21.40;10.27;;;;;;;;;;5048572;28;20438;-86
2023/01/23 11:56:43;;;;;;;23.35;10.02;;;;;;;;;;5048206;28;20427;-82
2023/01/23 11:59:28;;;;;;;21.48;10.25;;;;;;;;;;5045084;28;21100;-81
2023/01/23 12:02:25;;;;;;;19.73;9.80;;;;;;;;;;5037810;28;20427;-81
2023/01/23 12:05:13;;;;;;;18.67;9.40;;;;;;;;;;4969103;28;20444;-84
2023/01/23 12:07:45;;;;;;;20.13;10.05;;;;;;;;;;5042358;28;20443;-82
2023/01/23 12:10:23;;;;;;;20.38;10.70;;;;;;;;;;5054127;28;20800;-82
2023/01/23 12:13:05;;;;;;;19.70;9.77;;;;;;;;;;5048055;28;20518;-82
2023/01/23 12:15:43;;;;;;;22.83;10.57;;;;;;;;;;5053023;28;20998;-83
2023/01/23 12:18:17;;;;;;;20.00;10.18;;;;;;;;;;5049127;28;20407;-83
2023/01/23 12:20:55;;;;;;;20.45;10.57;;;;;;;;;;5056479;28;20431;-83
2023/01/23 12:23:33;;;;;;;21.13;10.00;;;;;;;;;;5053809;28;20403;-83
2023/01/23 12:26:11;;;;;;;19.67;10.40;;;;;;;;;;5044375;28;20431;-83
2023/01/23 12:28:47;;;;;;;18.63;9.80;;;;;;;;;;5046666;28;20422;-83
2023/01/23 12:31:29;;;;;;;18.92;9.82;;;;;;;;;;5051910;28;20514;-83
2023/01/23 12:34:07;;;;;;;18.27;9.70;;;;;;;;;;5047367;28;20432;-84
2023/01/23 12:36:49;;;;;;;19.45;10.25;;;;;;;;;;5049046;28;20516;-85
2023/01/23 12:39:23;;;;;;;20.90;9.45;;;;;;;;;;5064006;28;22022;-83
2023/01/23 12:42:02;;;;;;;18.10;9.85;;;;;;;;;;5050001;28;20462;-82
2023/01/23 12:44:33;;;;;;;17.50;9.38;;;;;;;;;;5052465;28;20918;-84
2023/01/23 12:47:08;;;;;;;18.07;9.67;;;;;;;;;;5062525;28;20924;-84
2023/01/23 12:49:38;;;;;;;17.45;9.13;;;;;;;;;;5062792;28;20494;-84
2023/01/23 12:52:20;;;;;;;19.05;9.65;;;;;;;;;;5054192;28;20427;-83
2023/01/23 12:54:50;;;;;;;18.05;9.60;;;;;;;;;;5047377;28;20940;-85
2023/01/23 13:00:09;;;;;;;19.95;9.10;;;;;;;;;;5046213;28;20439;-84
2023/01/23 13:02:47;;;;;;;17.03;9.77;;;;;;;;;;5053527;28;20420;-84
2023/01/23 13:05:22;;;;;;;18.75;9.43;;;;;;;;;;5048568;28;20442;-84
2023/01/23 13:07:57;;;;;;;18.23;9.55;;;;;;;;;;5042763;28;20435;-84
2023/01/23 13:13:28;;;;;;;19.38;10.02;;;;;;;;;;5061537;28;21331;-83
2023/01/23 13:16:03;;;;;;;21.98;10.38;;;;;;;;;;5061884;28;20434;-84
2023/01/23 13:27:28;;;;;;;19.70;10.43;;;;;;;;;;5038867;28;20427;-83
2023/01/23 13:29:58;;;;;;;21.00;9.63;;;;;;;;;;5032424;28;20428;-83
2023/01/23 13:32:28;;;;;;;20.27;9.80;;;;;;;;;;5050817;28;20768;-83
2023/01/23 13:35:00;;;;;;;21.83;10.43;;;;;;;;;;5054236;28;20443;-83
2023/01/23 13:37:54;;;;;;;19.83;10.40;;;;;;;;;;5046995;28;20450;-84
2023/01/23 13:40:28;;;;;;;19.83;10.30;;;;;;;;;;5046333;28;20935;-83
2023/01/23 13:43:30;;;;;;;21.70;10.13;;;;;;;;;;5044783;28;21408;-83
2023/01/23 13:46:03;;;;;;;22.48;10.95;;;;;;;;;;5043913;28;20799;-83
2023/01/23 13:51:43;;;;;;;20.48;10.45;;;;;;;;;;4960927;28;21100;-83
2023/01/23 13:57:28;;;;;;;20.83;10.50;;;;;;;;;;4873985;29;20820;-83
2023/01/23 14:00:14;;;;;;;22.67;11.15;;;;;;;;;;4801172;29;20452;-84
2023/01/23 14:06:04;;;;;;;22.42;10.60;;;;;;;;;;4663979;30;20845;-83
2023/01/23 14:08:48;;;;;;;22.33;11.00;;;;;;;;;;4655018;30;20940;-83
2023/01/23 14:11:35;;;;;;;24.80;11.43;;;;;;;;;;4651454;30;21378;-83
2023/01/23 14:17:18;;;;;;;24.85;11.88;;;;;;;;;;4667137;30;20458;-84
2023/01/23 14:20:01;;;;;;;26.45;11.80;;;;;;;;;;4686402;30;20451;-83
2023/01/23 14:22:43;;;;;;;26.63;11.63;;;;;;;;;;4685133;30;21289;-84
2023/01/23 14:25:17;;;;;;;23.38;10.90;;;;;;;;;;4720585;30;20803;-83
2023/01/23 14:28:01;;;;;;;23.92;11.23;;;;;;;;;;4772249;29;20434;-83
2023/01/23 14:30:30;;;;;;;24.77;11.63;;;;;;;;;;4819852;29;20441;-84
2023/01/23 14:32:58;;;;;;;24.05;11.15;;;;;;;;;;4869837;28;20438;-83
2023/01/23 14:35:32;;;;;;;24.08;11.02;;;;;;;;;;4907670;29;22062;-84
2023/01/23 14:38:06;;;;;;;27.48;11.40;;;;;;;;;;4899699;29;20833;-85
2023/01/23 14:40:34;;;;;;;25.58;11.57;;;;;;;;;;4915865;28;20460;-84
2023/01/23 14:43:03;;;;;;;25.10;11.18;;;;;;;;;;4920598;29;20430;-82
2023/01/23 14:45:38;;;;;;;24.02;11.68;;;;;;;;;;4955425;28;20448;-83
2023/01/23 14:48:14;;;;;;;25.50;11.18;;;;;;;;;;5029750;28;20446;-83
2023/01/23 14:50:42;;;;;;;24.52;11.63;;;;;;;;;;5047238;28;21106;-83
2023/01/23 14:53:13;;;;;;;25.15;11.30;;;;;;;;;;5046465;28;20891;-84
2023/01/23 14:55:48;;;;;;;24.52;11.38;;;;;;;;;;5040698;28;20436;-84
2023/01/23 14:58:20;;;;;;;22.00;10.48;;;;;;;;;;5049159;28;20446;-84
2023/01/23 15:00:55;;;;;;;26.20;11.50;;;;;;;;;;5041939;28;20791;-84
2023/01/23 15:03:34;;;;;;;25.52;11.35;;;;;;;;;;5051286;28;20911;-85
2023/01/23 15:06:09;;;;;;;30.55;12.30;;;;;;;;;;5051198;28;20431;-85
2023/01/23 15:08:42;;;;;;;27.27;12.35;;;;;;;;;;5044308;28;20946;-84
2023/01/23 15:11:13;;;;;;;27.05;11.68;;;;;;;;;;5059046;28;20486;-82
2023/01/23 15:13:49;;;;;;;29.60;12.70;;;;;;;;;;5040691;28;20419;-83
2023/01/23 15:16:22;;;;;;;27.30;11.93;;;;;;;;;;5040421;28;20439;-83
2023/01/23 15:19:00;;;;;;;28.13;11.48;;;;;;;;;;5040794;28;20423;-82
2023/01/23 15:21:35;;;;;;;27.65;11.93;;;;;;;;;;5041957;28;20438;-84
2023/01/23 15:24:05;;;;;;;29.05;12.25;;;;;;;;;;5046387;28;20419;-84
2023/01/23 15:26:34;;;;;;;26.08;11.95;;;;;;;;;;5064987;28;20781;-84
2023/01/23 15:29:17;;;;;;;27.48;12.35;;;;;;;;;;5043219;28;21428;-84
2023/01/23 15:31:52;;;;;;;27.25;11.88;;;;;;;;;;5044248;28;21266;-83
2023/01/23 15:34:22;;;;;;;25.88;11.90;;;;;;;;;;5023288;28;20428;-83
2023/01/23 15:36:52;;;;;;;27.27;11.55;;;;;;;;;;5051285;28;20420;-84
2023/01/23 15:39:21;;;;;;;23.97;11.80;;;;;;;;;;5040947;28;20526;-84
2023/01/23 15:41:56;;;;;;;26.25;12.20;;;;;;;;;;5064049;28;20435;-85
2023/01/23 15:44:29;;;;;;;22.63;11.52;;;;;;;;;;5053707;28;20435;-84
2023/01/23 15:47:02;;;;;;;27.70;11.45;;;;;;;;;;5047525;28;21154;-84
2023/01/23 15:49:31;;;;;;;25.88;11.48;;;;;;;;;;5060980;28;20458;-85
2023/01/23 15:52:00;;;;;;;27.88;11.80;;;;;;;;;;5051253;28;20444;-85